Keum Yang Family — DSNO8 — position and weather

sailwx.info

Track history (hours):
 
Tides and Currents Weather Stations Pressure Air Temp Water Temp Dewpoint Dewpoint Depression Visibility Wind Speed Wind Dir Waves Ship Positions

Keum Yang Family

Last reported at 2016-Jan-15 10:18 UTC. Time now 2016-Feb-11 00:25 UTC.
Position N 34°37' E 134°60'.
Warning: this ship's position is 26 days out of date.

Length 95 m; draft 4 m.

Type: Cargo ship. MMSI: 441416000.

Date/timePositionNaut miles runAvg speedWind from/ knotsBaromVisibWave heightAir tempDewpointWater temp
2016-Jan-15 10:18N 34°37' E 134°60'6 8.0
2016-Jan-15 09:33N 34°35' E 135°06'1110.8
2016-Jan-15 08:33N 34°33' E 135°19'4 0.4
2016-Jan-14 22:31N 34°31' E 135°23'2 2.2
2016-Jan-14 21:29N 34°32' E 135°22'0 0.0
2016-Jan-14 20:29N 34°32' E 135°22'0 0.0
2016-Jan-14 19:29N 34°32' E 135°22'0 0.0
2016-Jan-14 18:23N 34°32' E 135°22'0 0.0
2016-Jan-14 17:29N 34°32' E 135°22'0 0.0
2016-Jan-14 16:23N 34°32' E 135°22'0 0.0
2016-Jan-14 15:23N 34°32' E 135°22'0 0.0
2016-Jan-14 14:23N 34°32' E 135°22'0 0.0
2016-Jan-14 13:29N 34°32' E 135°22'0 0.0
2016-Jan-14 12:29N 34°32' E 135°22'0 0.0
2016-Jan-14 11:23N 34°32' E 135°22'0 0.0
2016-Jan-14 10:23N 34°32' E 135°22'0 0.0
2016-Jan-14 09:23N 34°32' E 135°22'0 0.0
2016-Jan-14 08:29N 34°32' E 135°22'1 1.1
2016-Jan-14 07:33N 34°32' E 135°20'1111.3
2016-Jan-14 06:33N 34°34' E 135°07'  
2016-Jan-07 07:33N 34°36' E 135°04'1110.7
2016-Jan-07 06:33N 34°33' E 135°16'7 6.3
2016-Jan-07 05:32N 34°31' E 135°24'0 0.0
2016-Jan-07 04:32N 34°31' E 135°24'0 0.0
2016-Jan-07 03:32N 34°31' E 135°24'0 0.0
2016-Jan-07 02:32N 34°31' E 135°24'0 0.0
2016-Jan-06 21:26N 34°31' E 135°24'0 0.0
2016-Jan-06 20:08N 34°31' E 135°24'0 0.0
2016-Jan-06 19:26N 34°31' E 135°24'0 0.0
2016-Jan-05 22:32N 34°31' E 135°24'0 0.0
2016-Jan-05 19:32N 34°31' E 135°24'0 0.0
2016-Jan-05 18:26N 34°31' E 135°24'0 0.0
2016-Jan-05 17:32N 34°31' E 135°24'0 0.0
2016-Jan-05 16:32N 34°31' E 135°24'0 0.0
2016-Jan-05 15:20N 34°31' E 135°24'0 0.0
2016-Jan-05 13:32N 34°31' E 135°24'0 0.0
2016-Jan-05 12:08N 34°31' E 135°24'  
Track history (hours):
 
Tides and Currents Weather Stations Pressure Air Temp Water Temp Dewpoint Dewpoint Depression Visibility Wind Speed Wind Dir Waves Ship Positions

Keum Yang Family

Last reported at 2016-Jan-15 10:18 UTC. Time now 2016-Feb-11 00:25 UTC.
Position N 34°37' E 134°60'.
Warning: this ship's position is 26 days out of date.

Length 95 m; draft 4 m.

Type: Cargo ship. MMSI: 441416000.

Date/timePositionNaut miles runAvg speedWind from/ knotsBaromVisibWave heightAir tempDewpointWater temp
2016-Jan-15 10:18N 34°37' E 134°60'6 8.0
2016-Jan-15 09:33N 34°35' E 135°06'1110.8
2016-Jan-15 08:33N 34°33' E 135°19'4 0.4
2016-Jan-14 22:31N 34°31' E 135°23'2 2.2
2016-Jan-14 21:29N 34°32' E 135°22'0 0.0
2016-Jan-14 20:29N 34°32' E 135°22'0 0.0
2016-Jan-14 19:29N 34°32' E 135°22'0 0.0
2016-Jan-14 18:23N 34°32' E 135°22'0 0.0
2016-Jan-14 17:29N 34°32' E 135°22'0 0.0
2016-Jan-14 16:23N 34°32' E 135°22'0 0.0
2016-Jan-14 15:23N 34°32' E 135°22'0 0.0
2016-Jan-14 14:23N 34°32' E 135°22'0 0.0
2016-Jan-14 13:29N 34°32' E 135°22'0 0.0
2016-Jan-14 12:29N 34°32' E 135°22'0 0.0
2016-Jan-14 11:23N 34°32' E 135°22'0 0.0
2016-Jan-14 10:23N 34°32' E 135°22'0 0.0
2016-Jan-14 09:23N 34°32' E 135°22'0 0.0
2016-Jan-14 08:29N 34°32' E 135°22'1 1.1
2016-Jan-14 07:33N 34°32' E 135°20'1111.3
2016-Jan-14 06:33N 34°34' E 135°07'  
2016-Jan-07 07:33N 34°36' E 135°04'1110.7
2016-Jan-07 06:33N 34°33' E 135°16'7 6.3
2016-Jan-07 05:32N 34°31' E 135°24'0 0.0
2016-Jan-07 04:32N 34°31' E 135°24'0 0.0
2016-Jan-07 03:32N 34°31' E 135°24'0 0.0
2016-Jan-07 02:32N 34°31' E 135°24'0 0.0
2016-Jan-06 21:26N 34°31' E 135°24'0 0.0
2016-Jan-06 20:08N 34°31' E 135°24'0 0.0
2016-Jan-06 19:26N 34°31' E 135°24'0 0.0
2016-Jan-05 22:32N 34°31' E 135°24'0 0.0
2016-Jan-05 19:32N 34°31' E 135°24'0 0.0
2016-Jan-05 18:26N 34°31' E 135°24'0 0.0
2016-Jan-05 17:32N 34°31' E 135°24'0 0.0
2016-Jan-05 16:32N 34°31' E 135°24'0 0.0
2016-Jan-05 15:20N 34°31' E 135°24'0 0.0
2016-Jan-05 13:32N 34°31' E 135°24'0 0.0
2016-Jan-05 12:08N 34°31' E 135°24'  

Dump ship's entire track history